sensor_id;sensor_type;location;lat;lon;timestamp;P1;durP1;ratioP1;P2;durP2;ratioP2
22191;SDS011;11261;52.456;10.850;2023-04-25T00:01:32;5.82;;;2.20;;
22191;SDS011;11261;52.456;10.850;2023-04-25T00:04:03;7.40;;;2.30;;
22191;SDS011;11261;52.456;10.850;2023-04-25T00:06:33;2.67;;;1.65;;
22191;SDS011;11261;52.456;10.850;2023-04-25T00:09:04;4.18;;;2.35;;
22191;SDS011;11261;52.456;10.850;2023-04-25T00:11:36;3.85;;;1.88;;
22191;SDS011;11261;52.456;10.850;2023-04-25T00:14:05;6.65;;;2.28;;
22191;SDS011;11261;52.456;10.850;2023-04-25T00:16:44;7.40;;;2.30;;
22191;SDS011;11261;52.456;10.850;2023-04-25T00:19:15;6.90;;;2.22;;
22191;SDS011;11261;52.456;10.850;2023-04-25T00:21:44;4.88;;;1.85;;
22191;SDS011;11261;52.456;10.850;2023-04-25T00:24:14;6.70;;;2.28;;
22191;SDS011;11261;52.456;10.850;2023-04-25T00:26:46;5.53;;;2.15;;
22191;SDS011;11261;52.456;10.850;2023-04-25T00:29:16;6.20;;;2.50;;
22191;SDS011;11261;52.456;10.850;2023-04-25T00:31:45;8.27;;;2.20;;
22191;SDS011;11261;52.456;10.850;2023-04-25T00:34:15;7.68;;;2.10;;
22191;SDS011;11261;52.456;10.850;2023-04-25T00:36:43;9.35;;;2.63;;
22191;SDS011;11261;52.456;10.850;2023-04-25T00:39:13;4.65;;;2.40;;
22191;SDS011;11261;52.456;10.850;2023-04-25T00:41:42;3.78;;;2.42;;
22191;SDS011;11261;52.456;10.850;2023-04-25T00:44:13;4.75;;;2.20;;
22191;SDS011;11261;52.456;10.850;2023-04-25T00:46:50;9.32;;;3.05;;
22191;SDS011;11261;52.456;10.850;2023-04-25T00:49:19;5.70;;;1.92;;
22191;SDS011;11261;52.456;10.850;2023-04-25T00:51:49;2.42;;;0.90;;
22191;SDS011;11261;52.456;10.850;2023-04-25T00:54:18;6.03;;;2.25;;
22191;SDS011;11261;52.456;10.850;2023-04-25T00:56:48;7.57;;;1.63;;
22191;SDS011;11261;52.456;10.850;2023-04-25T00:59:19;4.78;;;2.05;;
22191;SDS011;11261;52.456;10.850;2023-04-25T01:01:50;5.55;;;2.53;;
22191;SDS011;11261;52.456;10.850;2023-04-25T01:04:19;7.35;;;2.95;;
22191;SDS011;11261;52.456;10.850;2023-04-25T01:06:49;3.50;;;1.85;;
22191;SDS011;11261;52.456;10.850;2023-04-25T01:09:18;5.55;;;2.55;;
22191;SDS011;11261;52.456;10.850;2023-04-25T01:11:47;5.28;;;2.50;;
22191;SDS011;11261;52.456;10.850;2023-04-25T01:14:17;4.70;;;1.90;;
22191;SDS011;11261;52.456;10.850;2023-04-25T01:16:46;4.30;;;1.90;;
22191;SDS011;11261;52.456;10.850;2023-04-25T01:19:16;6.72;;;2.78;;
22191;SDS011;11261;52.456;10.850;2023-04-25T01:21:49;5.18;;;2.45;;
22191;SDS011;11261;52.456;10.850;2023-04-25T01:24:24;2.60;;;1.50;;
22191;SDS011;11261;52.456;10.850;2023-04-25T01:26:54;4.97;;;2.83;;
22191;SDS011;11261;52.456;10.850;2023-04-25T01:29:23;4.68;;;1.95;;
22191;SDS011;11261;52.456;10.850;2023-04-25T01:31:53;4.93;;;2.35;;
22191;SDS011;11261;52.456;10.850;2023-04-25T01:34:23;4.25;;;2.40;;
22191;SDS011;11261;52.456;10.850;2023-04-25T01:36:55;7.00;;;3.05;;
22191;SDS011;11261;52.456;10.850;2023-04-25T01:39:26;8.45;;;3.10;;
22191;SDS011;11261;52.456;10.850;2023-04-25T01:41:56;6.80;;;2.72;;
22191;SDS011;11261;52.456;10.850;2023-04-25T01:44:25;9.27;;;2.90;;
22191;SDS011;11261;52.456;10.850;2023-04-25T01:46:56;7.13;;;3.15;;
22191;SDS011;11261;52.456;10.850;2023-04-25T01:49:25;3.83;;;2.38;;
22191;SDS011;11261;52.456;10.850;2023-04-25T01:51:56;7.80;;;2.95;;
22191;SDS011;11261;52.456;10.850;2023-04-25T01:54:25;4.88;;;2.63;;
22191;SDS011;11261;52.456;10.850;2023-04-25T01:56:56;8.00;;;3.00;;
22191;SDS011;11261;52.456;10.850;2023-04-25T01:59:26;3.47;;;1.67;;
22191;SDS011;11261;52.456;10.850;2023-04-25T02:01:56;6.30;;;2.50;;
22191;SDS011;11261;52.456;10.850;2023-04-25T02:04:26;10.88;;;3.00;;
22191;SDS011;11261;52.456;10.850;2023-04-25T02:06:57;6.93;;;2.55;;
22191;SDS011;11261;52.456;10.850;2023-04-25T02:09:34;4.03;;;2.50;;
22191;SDS011;11261;52.456;10.850;2023-04-25T02:12:03;11.13;;;3.15;;
22191;SDS011;11261;52.456;10.850;2023-04-25T02:14:32;8.45;;;2.97;;
22191;SDS011;11261;52.456;10.850;2023-04-25T02:17:06;5.63;;;2.83;;
22191;SDS011;11261;52.456;10.850;2023-04-25T02:19:35;7.45;;;2.85;;
22191;SDS011;11261;52.456;10.850;2023-04-25T02:22:06;8.93;;;3.03;;
22191;SDS011;11261;52.456;10.850;2023-04-25T02:24:35;6.65;;;2.20;;
22191;SDS011;11261;52.456;10.850;2023-04-25T02:27:08;8.52;;;3.30;;
22191;SDS011;11261;52.456;10.850;2023-04-25T02:29:37;3.35;;;2.78;;
22191;SDS011;11261;52.456;10.850;2023-04-25T02:32:06;7.65;;;3.05;;
22191;SDS011;11261;52.456;10.850;2023-04-25T02:34:36;9.35;;;3.13;;
22191;SDS011;11261;52.456;10.850;2023-04-25T02:37:08;8.23;;;3.15;;
22191;SDS011;11261;52.456;10.850;2023-04-25T02:39:37;4.95;;;2.78;;
22191;SDS011;11261;52.456;10.850;2023-04-25T02:42:06;4.55;;;2.55;;
22191;SDS011;11261;52.456;10.850;2023-04-25T02:44:34;2.25;;;1.17;;
22191;SDS011;11261;52.456;10.850;2023-04-25T02:47:03;5.60;;;2.85;;
22191;SDS011;11261;52.456;10.850;2023-04-25T02:49:33;2.15;;;1.77;;
22191;SDS011;11261;52.456;10.850;2023-04-25T02:52:01;2.22;;;1.15;;
22191;SDS011;11261;52.456;10.850;2023-04-25T02:54:32;6.88;;;2.92;;
22191;SDS011;11261;52.456;10.850;2023-04-25T02:57:01;7.53;;;4.00;;
22191;SDS011;11261;52.456;10.850;2023-04-25T02:59:30;8.40;;;3.03;;
22191;SDS011;11261;52.456;10.850;2023-04-25T03:01:59;6.40;;;2.60;;
22191;SDS011;11261;52.456;10.850;2023-04-25T03:04:28;7.90;;;3.80;;
22191;SDS011;11261;52.456;10.850;2023-04-25T03:06:57;10.82;;;3.60;;
22191;SDS011;11261;52.456;10.850;2023-04-25T03:09:27;9.15;;;3.33;;
22191;SDS011;11261;52.456;10.850;2023-04-25T03:12:00;8.93;;;3.30;;
22191;SDS011;11261;52.456;10.850;2023-04-25T03:14:31;9.02;;;3.67;;
22191;SDS011;11261;52.456;10.850;2023-04-25T03:17:01;7.70;;;3.85;;
22191;SDS011;11261;52.456;10.850;2023-04-25T03:19:30;8.95;;;3.90;;
22191;SDS011;11261;52.456;10.850;2023-04-25T03:22:00;6.10;;;3.63;;
22191;SDS011;11261;52.456;10.850;2023-04-25T03:24:28;7.55;;;3.80;;
22191;SDS011;11261;52.456;10.850;2023-04-25T03:26:56;9.75;;;3.05;;
22191;SDS011;11261;52.456;10.850;2023-04-25T03:29:26;9.43;;;3.92;;
22191;SDS011;11261;52.456;10.850;2023-04-25T03:31:55;9.77;;;3.90;;
22191;SDS011;11261;52.456;10.850;2023-04-25T03:34:23;7.72;;;3.42;;
22191;SDS011;11261;52.456;10.850;2023-04-25T03:36:52;7.25;;;3.60;;
22191;SDS011;11261;52.456;10.850;2023-04-25T03:39:20;10.90;;;3.90;;
22191;SDS011;11261;52.456;10.850;2023-04-25T03:41:48;10.55;;;4.47;;
22191;SDS011;11261;52.456;10.850;2023-04-25T03:44:18;7.72;;;3.33;;
22191;SDS011;11261;52.456;10.850;2023-04-25T03:46:46;9.60;;;4.00;;
22191;SDS011;11261;52.456;10.850;2023-04-25T03:49:15;8.15;;;3.70;;
22191;SDS011;11261;52.456;10.850;2023-04-25T03:51:44;8.85;;;3.60;;
22191;SDS011;11261;52.456;10.850;2023-04-25T03:54:13;7.43;;;3.15;;
22191;SDS011;11261;52.456;10.850;2023-04-25T03:56:41;6.55;;;3.30;;
22191;SDS011;11261;52.456;10.850;2023-04-25T03:59:09;8.90;;;3.38;;
22191;SDS011;11261;52.456;10.850;2023-04-25T04:01:39;8.50;;;2.92;;
22191;SDS011;11261;52.456;10.850;2023-04-25T04:04:08;6.13;;;3.33;;
22191;SDS011;11261;52.456;10.850;2023-04-25T04:06:37;7.57;;;2.95;;
22191;SDS011;11261;52.456;10.850;2023-04-25T04:09:05;9.85;;;3.05;;
22191;SDS011;11261;52.456;10.850;2023-04-25T04:11:36;10.10;;;2.92;;
22191;SDS011;11261;52.456;10.850;2023-04-25T04:14:04;3.45;;;1.63;;
22191;SDS011;11261;52.456;10.850;2023-04-25T04:16:33;5.13;;;2.45;;
22191;SDS011;11261;52.456;10.850;2023-04-25T04:19:03;8.40;;;2.70;;
22191;SDS011;11261;52.456;10.850;2023-04-25T04:21:31;7.25;;;2.55;;
22191;SDS011;11261;52.456;10.850;2023-04-25T04:24:00;7.72;;;2.42;;
22191;SDS011;11261;52.456;10.850;2023-04-25T04:26:28;6.03;;;2.20;;
22191;SDS011;11261;52.456;10.850;2023-04-25T04:28:58;8.18;;;2.50;;
22191;SDS011;11261;52.456;10.850;2023-04-25T04:31:26;4.85;;;2.80;;
22191;SDS011;11261;52.456;10.850;2023-04-25T04:33:56;9.52;;;2.50;;
22191;SDS011;11261;52.456;10.850;2023-04-25T04:36:26;7.68;;;2.50;;
22191;SDS011;11261;52.456;10.850;2023-04-25T04:38:54;8.95;;;2.60;;
22191;SDS011;11261;52.456;10.850;2023-04-25T04:41:23;11.05;;;3.10;;
22191;SDS011;11261;52.456;10.850;2023-04-25T04:43:52;11.10;;;2.65;;
22191;SDS011;11261;52.456;10.850;2023-04-25T04:46:22;16.17;;;3.92;;
22191;SDS011;11261;52.456;10.850;2023-04-25T04:48:51;5.97;;;2.17;;
22191;SDS011;11261;52.456;10.850;2023-04-25T04:51:20;11.13;;;2.42;;
22191;SDS011;11261;52.456;10.850;2023-04-25T04:53:49;7.07;;;2.50;;
22191;SDS011;11261;52.456;10.850;2023-04-25T04:56:18;8.88;;;2.53;;
22191;SDS011;11261;52.456;10.850;2023-04-25T04:58:49;11.93;;;2.35;;
22191;SDS011;11261;52.456;10.850;2023-04-25T05:01:19;8.25;;;2.67;;
22191;SDS011;11261;52.456;10.850;2023-04-25T05:03:48;9.43;;;2.40;;
22191;SDS011;11261;52.456;10.850;2023-04-25T05:06:18;9.10;;;2.28;;
22191;SDS011;11261;52.456;10.850;2023-04-25T05:08:47;10.25;;;1.98;;
22191;SDS011;11261;52.456;10.850;2023-04-25T05:11:16;10.13;;;2.55;;
22191;SDS011;11261;52.456;10.850;2023-04-25T05:13:44;5.78;;;2.33;;
22191;SDS011;11261;52.456;10.850;2023-04-25T05:16:13;8.32;;;2.28;;
22191;SDS011;11261;52.456;10.850;2023-04-25T05:18:41;12.00;;;2.22;;
22191;SDS011;11261;52.456;10.850;2023-04-25T05:21:10;7.43;;;2.40;;
22191;SDS011;11261;52.456;10.850;2023-04-25T05:23:38;8.32;;;2.30;;
22191;SDS011;11261;52.456;10.850;2023-04-25T05:26:06;8.48;;;2.28;;
22191;SDS011;11261;52.456;10.850;2023-04-25T05:28:41;8.52;;;2.22;;
22191;SDS011;11261;52.456;10.850;2023-04-25T05:31:10;12.18;;;2.78;;
22191;SDS011;11261;52.456;10.850;2023-04-25T05:33:38;8.25;;;2.22;;
22191;SDS011;11261;52.456;10.850;2023-04-25T05:36:07;10.50;;;2.67;;
22191;SDS011;11261;52.456;10.850;2023-04-25T05:38:36;11.48;;;2.53;;
22191;SDS011;11261;52.456;10.850;2023-04-25T05:41:04;10.82;;;3.15;;
22191;SDS011;11261;52.456;10.850;2023-04-25T05:43:33;10.35;;;2.40;;
22191;SDS011;11261;52.456;10.850;2023-04-25T05:46:03;10.20;;;2.22;;
22191;SDS011;11261;52.456;10.850;2023-04-25T05:48:32;11.00;;;2.47;;
22191;SDS011;11261;52.456;10.850;2023-04-25T05:51:00;9.40;;;2.42;;
22191;SDS011;11261;52.456;10.850;2023-04-25T05:53:28;12.40;;;2.97;;
22191;SDS011;11261;52.456;10.850;2023-04-25T05:55:57;12.70;;;2.50;;
22191;SDS011;11261;52.456;10.850;2023-04-25T05:58:25;15.40;;;3.15;;
22191;SDS011;11261;52.456;10.850;2023-04-25T06:00:53;14.48;;;2.50;;
22191;SDS011;11261;52.456;10.850;2023-04-25T06:03:23;13.95;;;2.92;;
22191;SDS011;11261;52.456;10.850;2023-04-25T06:05:52;7.00;;;1.90;;
22191;SDS011;11261;52.456;10.850;2023-04-25T06:08:20;12.75;;;3.08;;
22191;SDS011;11261;52.456;10.850;2023-04-25T06:10:49;11.70;;;2.40;;
22191;SDS011;11261;52.456;10.850;2023-04-25T06:13:17;6.15;;;1.70;;
22191;SDS011;11261;52.456;10.850;2023-04-25T06:15:45;15.82;;;2.15;;
22191;SDS011;11261;52.456;10.850;2023-04-25T06:18:13;5.35;;;2.03;;
22191;SDS011;11261;52.456;10.850;2023-04-25T06:20:43;6.22;;;2.20;;
22191;SDS011;11261;52.456;10.850;2023-04-25T06:23:11;16.33;;;2.30;;
22191;SDS011;11261;52.456;10.850;2023-04-25T06:25:39;9.85;;;2.47;;
22191;SDS011;11261;52.456;10.850;2023-04-25T06:28:07;12.40;;;2.83;;
22191;SDS011;11261;52.456;10.850;2023-04-25T06:30:36;12.85;;;3.20;;
22191;SDS011;11261;52.456;10.850;2023-04-25T06:33:04;11.82;;;2.25;;
22191;SDS011;11261;52.456;10.850;2023-04-25T06:35:32;7.82;;;2.28;;
22191;SDS011;11261;52.456;10.850;2023-04-25T06:38:02;14.02;;;2.00;;
22191;SDS011;11261;52.456;10.850;2023-04-25T06:40:31;13.68;;;3.05;;
22191;SDS011;11261;52.456;10.850;2023-04-25T06:42:59;10.73;;;2.10;;
22191;SDS011;11261;52.456;10.850;2023-04-25T06:45:27;11.60;;;2.92;;
22191;SDS011;11261;52.456;10.850;2023-04-25T06:47:56;10.10;;;2.40;;
22191;SDS011;11261;52.456;10.850;2023-04-25T06:50:24;9.50;;;2.60;;
22191;SDS011;11261;52.456;10.850;2023-04-25T06:52:53;11.00;;;2.70;;
22191;SDS011;11261;52.456;10.850;2023-04-25T06:55:22;4.85;;;1.60;;
22191;SDS011;11261;52.456;10.850;2023-04-25T06:57:50;10.05;;;2.08;;
22191;SDS011;11261;52.456;10.850;2023-04-25T07:00:19;11.35;;;2.50;;
22191;SDS011;11261;52.456;10.850;2023-04-25T07:02:48;10.88;;;2.55;;
22191;SDS011;11261;52.456;10.850;2023-04-25T07:05:17;12.88;;;2.33;;
22191;SDS011;11261;52.456;10.850;2023-04-25T07:07:45;7.80;;;1.88;;
22191;SDS011;11261;52.456;10.850;2023-04-25T07:10:13;6.35;;;1.50;;
22191;SDS011;11261;52.456;10.850;2023-04-25T07:12:43;6.10;;;2.20;;
22191;SDS011;11261;52.456;10.850;2023-04-25T07:15:11;8.48;;;1.95;;
22191;SDS011;11261;52.456;10.850;2023-04-25T07:17:39;8.60;;;1.95;;
22191;SDS011;11261;52.456;10.850;2023-04-25T07:20:08;8.90;;;2.28;;
22191;SDS011;11261;52.456;10.850;2023-04-25T07:22:37;8.93;;;2.88;;
22191;SDS011;11261;52.456;10.850;2023-04-25T07:25:05;11.18;;;1.98;;
22191;SDS011;11261;52.456;10.850;2023-04-25T07:27:35;5.00;;;1.58;;
22191;SDS011;11261;52.456;10.850;2023-04-25T07:30:05;9.75;;;1.85;;
22191;SDS011;11261;52.456;10.850;2023-04-25T07:32:34;6.85;;;1.55;;
22191;SDS011;11261;52.456;10.850;2023-04-25T07:35:02;9.05;;;2.53;;
22191;SDS011;11261;52.456;10.850;2023-04-25T07:37:31;10.70;;;2.33;;
22191;SDS011;11261;52.456;10.850;2023-04-25T07:40:00;11.55;;;2.38;;
22191;SDS011;11261;52.456;10.850;2023-04-25T07:42:30;4.38;;;1.77;;
22191;SDS011;11261;52.456;10.850;2023-04-25T07:44:58;9.40;;;1.75;;
22191;SDS011;11261;52.456;10.850;2023-04-25T07:47:29;8.52;;;2.00;;
22191;SDS011;11261;52.456;10.850;2023-04-25T07:49:57;6.43;;;1.48;;
22191;SDS011;11261;52.456;10.850;2023-04-25T07:52:25;4.43;;;1.15;;
22191;SDS011;11261;52.456;10.850;2023-04-25T07:54:54;6.57;;;1.90;;
22191;SDS011;11261;52.456;10.850;2023-04-25T07:57:22;5.38;;;1.20;;
22191;SDS011;11261;52.456;10.850;2023-04-25T07:59:50;3.35;;;1.33;;
22191;SDS011;11261;52.456;10.850;2023-04-25T08:02:19;8.45;;;1.60;;
22191;SDS011;11261;52.456;10.850;2023-04-25T08:04:48;10.15;;;1.77;;
22191;SDS011;11261;52.456;10.850;2023-04-25T08:07:17;9.55;;;1.52;;
22191;SDS011;11261;52.456;10.850;2023-04-25T08:09:46;7.80;;;2.08;;
22191;SDS011;11261;52.456;10.850;2023-04-25T08:12:14;6.47;;;1.63;;
22191;SDS011;11261;52.456;10.850;2023-04-25T08:14:42;9.43;;;2.05;;
22191;SDS011;11261;52.456;10.850;2023-04-25T08:17:11;8.23;;;2.05;;
22191;SDS011;11261;52.456;10.850;2023-04-25T08:19:39;7.97;;;2.13;;
22191;SDS011;11261;52.456;10.850;2023-04-25T08:22:09;12.82;;;1.92;;
22191;SDS011;11261;52.456;10.850;2023-04-25T08:24:37;5.18;;;1.60;;
22191;SDS011;11261;52.456;10.850;2023-04-25T08:27:05;9.80;;;1.90;;
22191;SDS011;11261;52.456;10.850;2023-04-25T08:29:34;6.57;;;1.70;;
22191;SDS011;11261;52.456;10.850;2023-04-25T08:32:02;5.90;;;1.48;;
22191;SDS011;11261;52.456;10.850;2023-04-25T08:34:30;7.57;;;1.50;;
22191;SDS011;11261;52.456;10.850;2023-04-25T08:36:59;5.18;;;2.33;;
22191;SDS011;11261;52.456;10.850;2023-04-25T08:39:28;7.43;;;1.70;;
22191;SDS011;11261;52.456;10.850;2023-04-25T08:41:57;6.78;;;1.83;;
22191;SDS011;11261;52.456;10.850;2023-04-25T08:44:25;7.47;;;1.55;;
22191;SDS011;11261;52.456;10.850;2023-04-25T08:46:54;7.60;;;1.60;;
22191;SDS011;11261;52.456;10.850;2023-04-25T08:49:24;6.25;;;1.42;;
22191;SDS011;11261;52.456;10.850;2023-04-25T08:51:53;5.65;;;1.88;;
22191;SDS011;11261;52.456;10.850;2023-04-25T08:54:24;11.32;;;2.15;;
22191;SDS011;11261;52.456;10.850;2023-04-25T08:57:01;5.85;;;1.60;;
22191;SDS011;11261;52.456;10.850;2023-04-25T08:59:31;4.07;;;1.75;;
22191;SDS011;11261;52.456;10.850;2023-04-25T09:02:03;6.18;;;1.50;;
22191;SDS011;11261;52.456;10.850;2023-04-25T09:04:31;7.18;;;1.77;;
22191;SDS011;11261;52.456;10.850;2023-04-25T09:06:59;6.13;;;1.60;;
22191;SDS011;11261;52.456;10.850;2023-04-25T09:09:29;6.30;;;1.38;;
22191;SDS011;11261;52.456;10.850;2023-04-25T09:11:58;6.63;;;1.50;;
22191;SDS011;11261;52.456;10.850;2023-04-25T09:14:27;7.22;;;1.63;;
22191;SDS011;11261;52.456;10.850;2023-04-25T09:16:57;3.88;;;1.25;;
22191;SDS011;11261;52.456;10.850;2023-04-25T09:19:27;7.10;;;2.17;;
22191;SDS011;11261;52.456;10.850;2023-04-25T09:22:06;7.90;;;1.90;;
22191;SDS011;11261;52.456;10.850;2023-04-25T09:24:37;7.13;;;1.55;;
22191;SDS011;11261;52.456;10.850;2023-04-25T09:27:08;3.35;;;1.33;;
22191;SDS011;11261;52.456;10.850;2023-04-25T09:29:38;5.60;;;1.48;;
22191;SDS011;11261;52.456;10.850;2023-04-25T09:32:17;2.28;;;1.17;;
22191;SDS011;11261;52.456;10.850;2023-04-25T09:34:47;8.95;;;1.50;;
22191;SDS011;11261;52.456;10.850;2023-04-25T09:37:17;6.20;;;1.30;;
22191;SDS011;11261;52.456;10.850;2023-04-25T09:39:50;9.20;;;1.35;;
22191;SDS011;11261;52.456;10.850;2023-04-25T09:42:22;6.95;;;1.23;;
22191;SDS011;11261;52.456;10.850;2023-04-25T09:44:51;4.20;;;1.20;;
22191;SDS011;11261;52.456;10.850;2023-04-25T09:47:22;6.82;;;1.88;;
22191;SDS011;11261;52.456;10.850;2023-04-25T09:49:52;2.85;;;1.00;;
22191;SDS011;11261;52.456;10.850;2023-04-25T09:52:21;9.40;;;1.80;;
22191;SDS011;11261;52.456;10.850;2023-04-25T09:54:53;7.80;;;1.80;;
22191;SDS011;11261;52.456;10.850;2023-04-25T09:57:22;4.18;;;1.52;;
22191;SDS011;11261;52.456;10.850;2023-04-25T09:59:51;6.95;;;1.25;;
22191;SDS011;11261;52.456;10.850;2023-04-25T10:02:21;3.97;;;1.25;;
22191;SDS011;11261;52.456;10.850;2023-04-25T10:04:51;4.03;;;1.42;;
22191;SDS011;11261;52.456;10.850;2023-04-25T10:07:22;5.88;;;1.52;;
22191;SDS011;11261;52.456;10.850;2023-04-25T10:09:54;8.75;;;1.48;;
22191;SDS011;11261;52.456;10.850;2023-04-25T10:12:26;2.70;;;0.90;;
22191;SDS011;11261;52.456;10.850;2023-04-25T10:14:55;5.43;;;1.50;;
22191;SDS011;11261;52.456;10.850;2023-04-25T10:17:24;2.65;;;1.00;;
22191;SDS011;11261;52.456;10.850;2023-04-25T10:19:54;6.70;;;1.20;;
22191;SDS011;11261;52.456;10.850;2023-04-25T10:22:23;6.10;;;1.27;;
22191;SDS011;11261;52.456;10.850;2023-04-25T10:24:58;3.40;;;2.03;;
22191;SDS011;11261;52.456;10.850;2023-04-25T10:27:30;5.45;;;1.20;;
22191;SDS011;11261;52.456;10.850;2023-04-25T10:30:02;3.65;;;1.00;;
22191;SDS011;11261;52.456;10.850;2023-04-25T10:32:32;4.78;;;1.13;;
22191;SDS011;11261;52.456;10.850;2023-04-25T10:35:10;7.85;;;1.23;;
22191;SDS011;11261;52.456;10.850;2023-04-25T10:40:33;6.30;;;1.35;;
22191;SDS011;11261;52.456;10.850;2023-04-25T10:46:02;5.07;;;1.20;;
22191;SDS011;11261;52.456;10.850;2023-04-25T10:48:43;5.68;;;1.33;;
22191;SDS011;11261;52.456;10.850;2023-04-25T10:51:18;7.05;;;1.40;;
22191;SDS011;11261;52.456;10.850;2023-04-25T10:53:58;2.95;;;1.10;;
22191;SDS011;11261;52.456;10.850;2023-04-25T10:56:29;2.67;;;1.10;;
22191;SDS011;11261;52.456;10.850;2023-04-25T10:59:03;5.93;;;1.20;;
22191;SDS011;11261;52.456;10.850;2023-04-25T11:01:35;3.08;;;1.00;;
22191;SDS011;11261;52.456;10.850;2023-04-25T11:04:05;4.22;;;0.82;;
22191;SDS011;11261;52.456;10.850;2023-04-25T11:06:41;4.88;;;1.40;;
22191;SDS011;11261;52.456;10.850;2023-04-25T11:09:16;3.67;;;1.30;;
22191;SDS011;11261;52.456;10.850;2023-04-25T11:11:53;3.08;;;1.17;;
22191;SDS011;11261;52.456;10.850;2023-04-25T11:14:22;3.20;;;1.13;;
22191;SDS011;11261;52.456;10.850;2023-04-25T11:16:52;4.07;;;1.15;;
22191;SDS011;11261;52.456;10.850;2023-04-25T11:19:25;3.40;;;1.25;;
22191;SDS011;11261;52.456;10.850;2023-04-25T11:21:54;5.50;;;1.30;;
22191;SDS011;11261;52.456;10.850;2023-04-25T11:24:25;2.55;;;1.00;;
22191;SDS011;11261;52.456;10.850;2023-04-25T11:26:56;2.55;;;1.17;;
22191;SDS011;11261;52.456;10.850;2023-04-25T11:29:26;3.85;;;1.20;;
22191;SDS011;11261;52.456;10.850;2023-04-25T11:31:55;6.25;;;1.10;;
22191;SDS011;11261;52.456;10.850;2023-04-25T11:34:25;1.33;;;0.93;;
22191;SDS011;11261;52.456;10.850;2023-04-25T11:36:53;5.53;;;1.02;;
22191;SDS011;11261;52.456;10.850;2023-04-25T11:39:23;6.40;;;1.30;;
22191;SDS011;11261;52.456;10.850;2023-04-25T11:41:52;4.95;;;1.10;;
22191;SDS011;11261;52.456;10.850;2023-04-25T11:44:22;4.05;;;1.02;;
22191;SDS011;11261;52.456;10.850;2023-04-25T11:46:50;2.72;;;1.10;;
22191;SDS011;11261;52.456;10.850;2023-04-25T11:49:19;2.17;;;0.77;;
22191;SDS011;11261;52.456;10.850;2023-04-25T11:51:48;4.00;;;1.30;;
22191;SDS011;11261;52.456;10.850;2023-04-25T11:54:16;2.35;;;1.05;;
22191;SDS011;11261;52.456;10.850;2023-04-25T11:56:45;3.42;;;0.88;;
22191;SDS011;11261;52.456;10.850;2023-04-25T11:59:13;6.05;;;1.35;;
22191;SDS011;11261;52.456;10.850;2023-04-25T12:01:48;5.70;;;1.02;;
22191;SDS011;11261;52.456;10.850;2023-04-25T12:04:18;5.60;;;0.93;;
22191;SDS011;11261;52.456;10.850;2023-04-25T12:06:49;7.50;;;1.10;;
22191;SDS011;11261;52.456;10.850;2023-04-25T12:09:20;1.35;;;0.93;;
22191;SDS011;11261;52.456;10.850;2023-04-25T12:11:55;5.50;;;1.15;;
22191;SDS011;11261;52.456;10.850;2023-04-25T12:14:25;2.42;;;0.85;;
22191;SDS011;11261;52.456;10.850;2023-04-25T12:16:57;1.52;;;0.90;;
22191;SDS011;11261;52.456;10.850;2023-04-25T12:19:26;2.83;;;0.85;;
22191;SDS011;11261;52.456;10.850;2023-04-25T12:21:59;2.03;;;0.82;;
22191;SDS011;11261;52.456;10.850;2023-04-25T12:24:32;3.50;;;1.00;;
22191;SDS011;11261;52.456;10.850;2023-04-25T12:27:05;1.33;;;0.60;;
22191;SDS011;11261;52.456;10.850;2023-04-25T12:29:35;4.00;;;1.10;;
22191;SDS011;11261;52.456;10.850;2023-04-25T12:32:16;1.65;;;0.50;;
22191;SDS011;11261;52.456;10.850;2023-04-25T12:34:44;3.45;;;0.90;;
22191;SDS011;11261;52.456;10.850;2023-04-25T12:37:13;3.72;;;0.88;;
22191;SDS011;11261;52.456;10.850;2023-04-25T12:39:42;1.05;;;0.60;;
22191;SDS011;11261;52.456;10.850;2023-04-25T12:42:10;2.67;;;0.95;;
22191;SDS011;11261;52.456;10.850;2023-04-25T12:44:39;4.93;;;1.00;;
22191;SDS011;11261;52.456;10.850;2023-04-25T12:47:07;0.80;;;0.60;;
22191;SDS011;11261;52.456;10.850;2023-04-25T12:49:37;2.30;;;0.70;;
22191;SDS011;11261;52.456;10.850;2023-04-25T12:52:06;4.80;;;0.90;;
22191;SDS011;11261;52.456;10.850;2023-04-25T12:54:34;3.17;;;0.70;;
22191;SDS011;11261;52.456;10.850;2023-04-25T12:57:02;3.58;;;1.02;;
22191;SDS011;11261;52.456;10.850;2023-04-25T12:59:31;2.17;;;0.70;;
22191;SDS011;11261;52.456;10.850;2023-04-25T13:01:59;2.05;;;0.93;;
22191;SDS011;11261;52.456;10.850;2023-04-25T13:04:27;3.88;;;0.82;;
22191;SDS011;11261;52.456;10.850;2023-04-25T13:06:57;4.53;;;1.10;;
22191;SDS011;11261;52.456;10.850;2023-04-25T13:09:26;3.58;;;0.98;;
22191;SDS011;11261;52.456;10.850;2023-04-25T13:11:54;1.25;;;0.80;;
22191;SDS011;11261;52.456;10.850;2023-04-25T13:14:24;3.92;;;0.93;;
22191;SDS011;11261;52.456;10.850;2023-04-25T13:16:52;2.95;;;1.00;;
22191;SDS011;11261;52.456;10.850;2023-04-25T13:19:21;1.85;;;0.77;;
22191;SDS011;11261;52.456;10.850;2023-04-25T13:21:49;5.03;;;0.82;;
22191;SDS011;11261;52.456;10.850;2023-04-25T13:24:19;2.63;;;0.70;;
22191;SDS011;11261;52.456;10.850;2023-04-25T13:26:47;3.63;;;0.98;;
22191;SDS011;11261;52.456;10.850;2023-04-25T13:29:15;2.67;;;0.95;;
22191;SDS011;11261;52.456;10.850;2023-04-25T13:31:44;2.47;;;0.68;;
22191;SDS011;11261;52.456;10.850;2023-04-25T13:34:12;2.03;;;0.80;;
22191;SDS011;11261;52.456;10.850;2023-04-25T13:36:41;3.83;;;0.80;;
22191;SDS011;11261;52.456;10.850;2023-04-25T13:39:09;3.88;;;0.90;;
22191;SDS011;11261;52.456;10.850;2023-04-25T13:41:40;1.00;;;0.60;;
22191;SDS011;11261;52.456;10.850;2023-04-25T13:44:08;2.58;;;1.00;;
22191;SDS011;11261;52.456;10.850;2023-04-25T13:46:37;1.33;;;0.60;;
22191;SDS011;11261;52.456;10.850;2023-04-25T13:49:13;0.88;;;0.60;;
22191;SDS011;11261;52.456;10.850;2023-04-25T13:51:42;1.70;;;0.80;;
22191;SDS011;11261;52.456;10.850;2023-04-25T13:54:10;1.75;;;1.05;;
22191;SDS011;11261;52.456;10.850;2023-04-25T13:56:40;2.35;;;0.95;;
22191;SDS011;11261;52.456;10.850;2023-04-25T13:59:08;3.13;;;0.75;;
22191;SDS011;11261;52.456;10.850;2023-04-25T14:01:37;2.08;;;0.60;;
22191;SDS011;11261;52.456;10.850;2023-04-25T14:04:05;5.82;;;0.90;;
22191;SDS011;11261;52.456;10.850;2023-04-25T14:06:34;2.80;;;0.80;;
22191;SDS011;11261;52.456;10.850;2023-04-25T14:09:03;2.05;;;0.73;;
22191;SDS011;11261;52.456;10.850;2023-04-25T14:11:33;3.92;;;0.75;;
22191;SDS011;11261;52.456;10.850;2023-04-25T14:14:02;2.55;;;0.90;;
22191;SDS011;11261;52.456;10.850;2023-04-25T14:16:31;1.90;;;0.60;;
22191;SDS011;11261;52.456;10.850;2023-04-25T14:18:59;1.60;;;0.63;;
22191;SDS011;11261;52.456;10.850;2023-04-25T14:21:28;1.48;;;0.63;;
22191;SDS011;11261;52.456;10.850;2023-04-25T14:23:58;2.83;;;0.63;;
22191;SDS011;11261;52.456;10.850;2023-04-25T14:26:27;1.98;;;0.40;;
22191;SDS011;11261;52.456;10.850;2023-04-25T14:28:55;0.82;;;0.50;;
22191;SDS011;11261;52.456;10.850;2023-04-25T14:31:24;3.83;;;0.98;;
22191;SDS011;11261;52.456;10.850;2023-04-25T14:33:53;1.45;;;0.70;;
22191;SDS011;11261;52.456;10.850;2023-04-25T14:36:24;2.03;;;0.73;;
22191;SDS011;11261;52.456;10.850;2023-04-25T14:38:53;2.90;;;0.80;;
22191;SDS011;11261;52.456;10.850;2023-04-25T14:41:22;2.15;;;0.82;;
22191;SDS011;11261;52.456;10.850;2023-04-25T14:43:51;2.67;;;0.52;;
22191;SDS011;11261;52.456;10.850;2023-04-25T14:46:20;1.52;;;0.77;;
22191;SDS011;11261;52.456;10.850;2023-04-25T14:48:51;0.57;;;0.30;;
22191;SDS011;11261;52.456;10.850;2023-04-25T14:51:19;1.33;;;0.68;;
22191;SDS011;11261;52.456;10.850;2023-04-25T14:53:48;0.88;;;0.60;;